Aeroporto :
LOGIN :

Iscrizione | Disclaimer

   EN    FR    IT 

 










Sommario :    VFR   VFR Marginale   IFR   IFR Intensivo   IFR Molto Intensivo
Visibilità : 
Base nubi : 
>= 8 km
>= 3000ft
5 / 8 km
1000 / 3000 ft
1500m / 5 km
500 / 1000 ft
800 / 1500m
200 / 500 ft
< 800m
< 200 ft
Simboli :   Temporali  Nebbia  Neve Forte  Precipitazioni Forti  Vento > 20 kt
SIGMETs :   Varie  Temporali  Ghiacco  Turbolenza  Onda orograficha  Ceneri Vulcaniche







- Altitudine del aeroporto : 392 ft
- Codice IATA : CDG
- Carte del aeroporto


LFPG - Paris-Aeroport Charles De Gaulle

ULTIMO METAR :
  • 271300Z 31009KT 240V360 9999 FEW044 BKN250 19/08 Q1012 NOSIG

METARs OBSOLETI :
  • 271230Z 29010KT 250V320 9999 SCT041 BKN250 19/08 Q1012 NOSIG
  • 271200Z 29008KT 230V320 9999 SCT041 BKN210 19/08 Q1012 NOSIG
  • 271130Z 30008KT 250V320 9999 FEW040 BKN210 19/09 Q1012 NOSIG
  • 271100Z 31010KT 280V350 9999 SCT040 BKN240 18/09 Q1012 NOSIG
  • 271030Z 28010KT 250V310 9999 FEW033 BKN250 18/09 Q1012 NOSIG
  • 271000Z 28010KT 240V310 9999 SCT030 BKN250 18/08 Q1012 NOSIG

TAF AMD TAF LFPG
Valido dal 27 a 12 ore il 28 a 18 ore UTC


271207Z 2712/2818 30010KT 9999 SCT040 TX21/2715Z TN11/2805Z
PROB40
TEMPO 2806/2809 3000 SHRA SCT020TCU
PROB40
TEMPO 2810/2815 30015G25KT 2000 -TSRA SCT020CB
PROB30
TEMPO 2816/2818 -SHRA SCT030TCU
ATIS : +33 1 48 62 10 92
Nessun NOTAM noto per questo aeroporto.



MetMap, La meteo Aeronautica in un colpo d'occhio ! - Copyright ORBIFLY Dicembre 2007 - Disclaimer

ORBIFLY MET'MAP TEAM :

Programmazione e sviluppo : Alexandra Zaïnal
Concezione e sviluppo : Baudouin d'Aumeries
Co-Programmazione e sviluppo : Marc-Olivier Méhu
Supporto tecnico e logistico : Manuel Goepfert
Aiuto per la traduzione : Arnaldo La Scala

Contatto : metmap@orbifly.com




FONTI E CREDITI :

   NOAA